Language selection

My Weather Profile Weather Topics  | 

Douglas Channel: Past 24 Hour Conditions

 

Middle Nomad - 46004

12:00 PM PDT 30 June 2022Buoy position: 50.93N 136.1W
Disclaimer

This table is a summary of hourly weather conditions for the past 24 hours.
Please note that these observations might not always be representative of weather conditions over their associated marine area.

Date / Time
(PDT)
Wind(knots) Wave height(m) Wave period(s) Pressure(kPa) Air tempC) Water tempC)
30 June 2022
12:00 NNW 8 gust 9 N/A 16.0 102.8 11 12
11:00 NW 9 gust 11 N/A 16.0 102.8 11 12
10:00 NNW 10 gust 11 1.3 16.0 102.8 11 12
9:00 NW 9 gust 12 1.3 16.0 102.8 11 12
8:00 NNW 8 gust 10 1.3 16.0 102.8 11 12
7:00 NNW 11 gust 13 1.4 16.0 102.8 10 12
6:00 NNW 8 gust 12 1.4 7.3 102.8 11 12
5:00 NNW 10 gust 13 1.4 17.1 102.8 11 12
4:00 NNW 9 gust 13 1.3 16.0 102.8 11 12
3:00 NNW 10 gust 12 1.2 17.1 102.8 11 12
2:00 NNW 10 gust 14 1.3 7.8 102.8 11 12
1:00 NW 10 gust 13 1.3 7.5 102.8 11 12
0:00 NW 7 gust 8 1.3 17.1 102.8 11 12
29 June 2022
23:00 NNW 10 gust 13 1.5 17.1 102.8 11 12
22:00 NW 10 gust 15 1.4 7.8 102.8 11 12
21:00 NNW 11 gust 13 1.5 7.3 102.8 11 12
20:00 NW 8 gust 10 N/A 7.8 102.8 12 12
19:00 NNW 12 gust 15 1.6 17.1 102.8 11 12
18:00 NW 11 gust 14 1.6 7.3 102.8 12 12
17:00 NW 8 gust 10 1.6 7.8 102.8 12 12
16:00 NW 10 gust 12 1.8 7.8 102.7 11 12
15:00 WNW 10 gust 13 1.7 8.3 102.7 12 12
14:00 WNW 10 gust 12 1.7 8.0 102.7 12 12
13:00 WNW 10 gust 13 1.7 8.5 102.7 12 12
12:00 WNW 11 gust 13 1.6 8.0 102.6 12 12

Zoom-in to make a selection

Map of Pacific - North Coast marine weather areas Middle Nomad - 46004 South Nomad - 46036 Dixon Entrance Central - 46145 South Moresby - 46147 Nanakwa Shoal - 46181 North Hecate Strait - 46183 North Nomad - 46184 South Hecate Strait - 46185 West Sea Otter - 46204 West Dixon Entrance - 46205 East Dellwood - 46207 West Moresby - 46208 Sartine Island Cape St.James Kindakun Rocks Langara Island Masset Municipal Airport Rose Spit Sandspit Airport Bella Bella Airport Bella Coola Airport Bonilla Island Cathedral Point Cumshewa Island Grey Islet Holland Rock Lucy Islands Lightstation Prince Rupert Airport
Legend:
buoy Buoy
land station Land Station

Pacific - North Coast Area

Another Region

What we are doing

Features

WeatherCAN app: set custom notifications

Learn how to set custom Air Quality Health Index notifications on the WeatherCAN app

Date modified: